Russell, North Dakota
Current Conditions -  °F | °C
As of 11:58 PM on Thursday 30 Oct 2014 (Local Time) from KMIB Reporting Station
Clear Clear  
Wind Chill: -10°   Ceiling: Unl
Heat Index: -10°   Visibility: 10mi
Dew Point: -10°   Wind: 3mph
Humidity: 94%   Direction: 250°WSW
Pressure: 30.56"   Gusts: NA
Location:  48.6879°N, 101.011°W
Report Text: KMIB 310458Z AUTO 25003KT 10SM CLR M09/M10 A3056 RMK AO2 SLP384 T10951103 $
Loading
Personal Weather Stations






























Interactive Weather Map
Tropical Storm Tracking
New forecast layout! Learn more

10-Day Weather Forecast

Advertisements
Track Severe Weather on mobile